Lehmann Sound — V2EM3 — position and weather

sailwx.info

Track history (hours):
 
Tides and Currents Weather Stations Pressure Air Temp Water Temp Dewpoint Dewpoint Depression Visibility Wind Speed Wind Dir Waves Ship Positions

Lehmann Sound

Last reported at 2017-May-19 15:32 UTC. Time now 2017-May-24 17:39 UTC.
Position N 54°08' E 009°20'.

Length 90 m; draft 5.6 m.

Type: Cargo ship. MMSI: 305476000.

Date/timePositionNaut miles runAvg speedWind from/ knotsBaromVisibWave heightAir tempDewpointWater temp
2017-May-19 15:32N 54°08' E 009°20'2 8.1
2017-May-19 15:20N 54°06' E 009°20'3 8.2
2017-May-19 15:00N 54°03' E 009°18'8 7.7
2017-May-19 14:00N 53°56' E 009°13'3 5.7
2017-May-19 13:30N 53°54' E 009°10'1 1.9
2017-May-19 13:00N 53°54' E 009°09'0 0.0
2017-May-19 12:30N 53°54' E 009°09'2 3.4
2017-May-19 12:00N 53°53' E 009°06'3 6.1
2017-May-19 11:30N 53°52' E 009°01'3 6.7
2017-May-19 11:00N 53°51' E 008°56'3 6.5
2017-May-19 10:30N 53°50' E 008°50'3 5.7
2017-May-19 10:00N 53°51' E 008°46'3 5.4
2017-May-19 09:30N 53°53' E 008°42'3 5.5
2017-May-19 08:59N 53°55' E 008°40'4 5.6
2017-May-19 08:19N 53°58' E 008°35'21 4.6
2017-May-19 03:47N 53°51' E 008°02'3 9.1
2017-May-19 03:29N 53°50' E 008°06'4 8.6
2017-May-19 02:58N 53°46' E 008°10'4 7.9
2017-May-19 02:25N 53°44' E 008°16'3 8.0
2017-May-19 02:00N 53°42' E 008°21'5 7.6
2017-May-19 01:17N 53°38' E 008°27'2 8.2
2017-May-19 01:00N 53°36' E 008°30'4 8.2
2017-May-19 00:30N 53°33' E 008°34'2 4.4
2017-May-19 00:00N 53°31' E 008°32'5 9.6
2017-May-18 23:30N 53°26' E 008°30'610.9
2017-May-18 22:59N 53°21' E 008°30'0 1.1
2017-May-18 22:31N 53°20' E 008°29'0 0.0
2017-May-18 21:55N 53°20' E 008°29'0 0.0
2017-May-18 21:28N 53°20' E 008°29'0 0.0
2017-May-18 20:58N 53°20' E 008°29'0 0.0
2017-May-18 20:30N 53°20' E 008°29'0 0.0
2017-May-18 20:00N 53°20' E 008°29'0 0.0
2017-May-18 19:30N 53°20' E 008°29'0 0.0
2017-May-18 19:00N 53°20' E 008°29'0 0.0
2017-May-18 18:30N 53°20' E 008°29'0 0.0
2017-May-18 18:00N 53°20' E 008°29'0 0.0
2017-May-18 17:30N 53°20' E 008°29'0 0.0
2017-May-18 17:00N 53°20' E 008°29'0 0.0
2017-May-18 16:30N 53°20' E 008°29'0 0.0
2017-May-18 16:00N 53°20' E 008°29'0 0.0
2017-May-18 15:30N 53°20' E 008°29'0 0.0
2017-May-18 15:00N 53°20' E 008°29'0 0.0
2017-May-18 14:00N 53°20' E 008°29'0 0.0
2017-May-18 13:30N 53°20' E 008°29'0 0.0
2017-May-18 13:00N 53°20' E 008°29'0 0.0
2017-May-18 12:30N 53°20' E 008°29'0 0.0
2017-May-18 12:00N 53°20' E 008°29'0 0.0
2017-May-18 11:30N 53°20' E 008°30'3 6.1
2017-May-18 11:00N 53°23' E 008°30'4 8.2
2017-May-18 10:30N 53°27' E 008°29'4 7.1
2017-May-18 10:00N 53°31' E 008°32'3 5.6
2017-May-18 09:30N 53°33' E 008°33'6 7.4
2017-May-18 08:42N 53°38' E 008°27'4 7.3
2017-May-18 08:10N 53°40' E 008°22'1 6.2
2017-May-18 08:00N 53°41' E 008°21'4 7.5
2017-May-18 07:24N 53°44' E 008°15'7 6.4
2017-May-18 06:16N 53°49' E 008°06'9 7.1
2017-May-18 05:01N 53°53' E 007°52'2 0.4
2017-May-18 00:18N 53°54' E 007°52'0 0.0
2017-May-17 23:50N 53°54' E 007°52'0 0.4
2017-May-17 23:28N 53°55' E 007°52'2 4.6
2017-May-17 22:59N 53°56' E 007°55'10 7.4
2017-May-17 21:40N 54°01' E 008°09'2 8.9
2017-May-17 21:26N 54°00' E 008°13'611.3
2017-May-17 20:55N 53°59' E 008°23'513.0
2017-May-17 20:30N 53°58' E 008°32'612.9
2017-May-17 20:00N 53°55' E 008°41'613.1
2017-May-17 19:30N 53°50' E 008°49'612.4
2017-May-17 19:00N 53°51' E 008°59'611.1
2017-May-17 18:30N 53°53' E 009°08'1 1.4
2017-May-17 18:01N 53°54' E 009°09'3 6.7
2017-May-17 17:30N 53°56' E 009°13'4 8.5
2017-May-17 17:00N 53°60' E 009°17'4 8.4
2017-May-17 16:30N 54°04' E 009°19'  
2017-May-13 19:58N 54°18' E 009°41'32 0.6
2017-May-11 16:25N 54°33' E 010°28'2 5.3
2017-May-11 16:00N 54°34' E 010°32'19 8.9
2017-May-11 13:52N 54°36' E 011°05'3 8.1
2017-May-11 13:30N 54°36' E 011°10'4 8.6
2017-May-11 13:00N 54°34' E 011°17'4 8.6
2017-May-11 12:30N 54°33' E 011°23'4 9.0
2017-May-11 12:00N 54°31' E 011°30'4 8.8
2017-May-11 11:31N 54°29' E 011°37'4 8.1
2017-May-11 11:00N 54°28' E 011°44'15 8.4
2017-May-11 09:16N 54°28' E 012°09'2 8.7
2017-May-11 09:00N 54°30' E 012°11'4 8.9
2017-May-11 08:30N 54°34' E 012°13'6 8.0
2017-May-11 07:46N 54°39' E 012°19'2 8.6
2017-May-11 07:30N 54°40' E 012°22'4 8.7
2017-May-11 07:00N 54°42' E 012°29'36 8.5
2017-May-11 02:49N 54°56' E 013°26'4 7.7
2017-May-11 02:17N 54°57' E 013°32'2 7.8
2017-May-11 01:59N 54°58' E 013°36'4 8.2
2017-May-11 01:30N 54°59' E 013°43'4 8.0
2017-May-11 01:00N 55°01' E 013°49'4 8.1
2017-May-11 00:30N 55°02' E 013°56'4 8.4
2017-May-11 00:00N 55°04' E 014°03'4 8.1
2017-May-10 23:30N 55°07' E 014°08'4 8.4
2017-May-10 23:00N 55°10' E 014°12'4 7.1
2017-May-10 22:28N 55°13' E 014°16'4 8.8
2017-May-10 22:00N 55°16' E 014°21'4 8.6
2017-May-10 21:30N 55°20' E 014°25'4 8.7
2017-May-10 21:00N 55°23' E 014°30'4 9.0
2017-May-10 20:30N 55°27' E 014°35'5 8.8
2017-May-10 19:59N 55°29' E 014°42'4 8.6
2017-May-10 19:30N 55°31' E 014°48'4 8.5
2017-May-10 19:01N 55°33' E 014°55'4 8.5
2017-May-10 18:30N 55°35' E 015°01'4 8.5
2017-May-10 18:00N 55°37' E 015°08'4 8.4
2017-May-10 17:30N 55°39' E 015°14'4 8.6
2017-May-10 17:00N 55°41' E 015°21'4 8.6
2017-May-10 16:30N 55°44' E 015°27'4 8.7
2017-May-10 16:00N 55°46' E 015°34'4 8.7
2017-May-10 15:30N 55°48' E 015°41'4 8.7
2017-May-10 15:00N 55°50' E 015°47'9 8.6
2017-May-10 14:00N 55°55' E 016°00'4 8.4
2017-May-10 13:30N 55°57' E 016°07'4 8.3
2017-May-10 13:00N 55°59' E 016°13'4 8.5
2017-May-10 12:30N 56°01' E 016°20'4 8.6
2017-May-10 12:00N 56°03' E 016°27'4 8.5
2017-May-10 11:30N 56°05' E 016°33'4 8.7
2017-May-10 11:00N 56°07' E 016°40'4 8.7
2017-May-10 10:30N 56°10' E 016°46'4 8.6
2017-May-10 10:00N 56°12' E 016°53'  
Track history (hours):
 
Tides and Currents Weather Stations Pressure Air Temp Water Temp Dewpoint Dewpoint Depression Visibility Wind Speed Wind Dir Waves Ship Positions

Lehmann Sound

Last reported at 2017-May-19 15:32 UTC. Time now 2017-May-24 17:39 UTC.
Position N 54°08' E 009°20'.

Length 90 m; draft 5.6 m.

Type: Cargo ship. MMSI: 305476000.

Date/timePositionNaut miles runAvg speedWind from/ knotsBaromVisibWave heightAir tempDewpointWater temp
2017-May-19 15:32N 54°08' E 009°20'2 8.1
2017-May-19 15:20N 54°06' E 009°20'3 8.2
2017-May-19 15:00N 54°03' E 009°18'8 7.7
2017-May-19 14:00N 53°56' E 009°13'3 5.7
2017-May-19 13:30N 53°54' E 009°10'1 1.9
2017-May-19 13:00N 53°54' E 009°09'0 0.0
2017-May-19 12:30N 53°54' E 009°09'2 3.4
2017-May-19 12:00N 53°53' E 009°06'3 6.1
2017-May-19 11:30N 53°52' E 009°01'3 6.7
2017-May-19 11:00N 53°51' E 008°56'3 6.5
2017-May-19 10:30N 53°50' E 008°50'3 5.7
2017-May-19 10:00N 53°51' E 008°46'3 5.4
2017-May-19 09:30N 53°53' E 008°42'3 5.5
2017-May-19 08:59N 53°55' E 008°40'4 5.6
2017-May-19 08:19N 53°58' E 008°35'21 4.6
2017-May-19 03:47N 53°51' E 008°02'3 9.1
2017-May-19 03:29N 53°50' E 008°06'4 8.6
2017-May-19 02:58N 53°46' E 008°10'4 7.9
2017-May-19 02:25N 53°44' E 008°16'3 8.0
2017-May-19 02:00N 53°42' E 008°21'5 7.6
2017-May-19 01:17N 53°38' E 008°27'2 8.2
2017-May-19 01:00N 53°36' E 008°30'4 8.2
2017-May-19 00:30N 53°33' E 008°34'2 4.4
2017-May-19 00:00N 53°31' E 008°32'5 9.6
2017-May-18 23:30N 53°26' E 008°30'610.9
2017-May-18 22:59N 53°21' E 008°30'0 1.1
2017-May-18 22:31N 53°20' E 008°29'0 0.0
2017-May-18 21:55N 53°20' E 008°29'0 0.0
2017-May-18 21:28N 53°20' E 008°29'0 0.0
2017-May-18 20:58N 53°20' E 008°29'0 0.0
2017-May-18 20:30N 53°20' E 008°29'0 0.0
2017-May-18 20:00N 53°20' E 008°29'0 0.0
2017-May-18 19:30N 53°20' E 008°29'0 0.0
2017-May-18 19:00N 53°20' E 008°29'0 0.0
2017-May-18 18:30N 53°20' E 008°29'0 0.0
2017-May-18 18:00N 53°20' E 008°29'0 0.0
2017-May-18 17:30N 53°20' E 008°29'0 0.0
2017-May-18 17:00N 53°20' E 008°29'0 0.0
2017-May-18 16:30N 53°20' E 008°29'0 0.0
2017-May-18 16:00N 53°20' E 008°29'0 0.0
2017-May-18 15:30N 53°20' E 008°29'0 0.0
2017-May-18 15:00N 53°20' E 008°29'0 0.0
2017-May-18 14:00N 53°20' E 008°29'0 0.0
2017-May-18 13:30N 53°20' E 008°29'0 0.0
2017-May-18 13:00N 53°20' E 008°29'0 0.0
2017-May-18 12:30N 53°20' E 008°29'0 0.0
2017-May-18 12:00N 53°20' E 008°29'0 0.0
2017-May-18 11:30N 53°20' E 008°30'3 6.1
2017-May-18 11:00N 53°23' E 008°30'4 8.2
2017-May-18 10:30N 53°27' E 008°29'4 7.1
2017-May-18 10:00N 53°31' E 008°32'3 5.6
2017-May-18 09:30N 53°33' E 008°33'6 7.4
2017-May-18 08:42N 53°38' E 008°27'4 7.3
2017-May-18 08:10N 53°40' E 008°22'1 6.2
2017-May-18 08:00N 53°41' E 008°21'4 7.5
2017-May-18 07:24N 53°44' E 008°15'7 6.4
2017-May-18 06:16N 53°49' E 008°06'9 7.1
2017-May-18 05:01N 53°53' E 007°52'2 0.4
2017-May-18 00:18N 53°54' E 007°52'0 0.0
2017-May-17 23:50N 53°54' E 007°52'0 0.4
2017-May-17 23:28N 53°55' E 007°52'2 4.6
2017-May-17 22:59N 53°56' E 007°55'10 7.4
2017-May-17 21:40N 54°01' E 008°09'2 8.9
2017-May-17 21:26N 54°00' E 008°13'611.3
2017-May-17 20:55N 53°59' E 008°23'513.0
2017-May-17 20:30N 53°58' E 008°32'612.9
2017-May-17 20:00N 53°55' E 008°41'613.1
2017-May-17 19:30N 53°50' E 008°49'612.4
2017-May-17 19:00N 53°51' E 008°59'611.1
2017-May-17 18:30N 53°53' E 009°08'1 1.4
2017-May-17 18:01N 53°54' E 009°09'3 6.7
2017-May-17 17:30N 53°56' E 009°13'4 8.5
2017-May-17 17:00N 53°60' E 009°17'4 8.4
2017-May-17 16:30N 54°04' E 009°19'  
2017-May-13 19:58N 54°18' E 009°41'32 0.6
2017-May-11 16:25N 54°33' E 010°28'2 5.3
2017-May-11 16:00N 54°34' E 010°32'19 8.9
2017-May-11 13:52N 54°36' E 011°05'3 8.1
2017-May-11 13:30N 54°36' E 011°10'4 8.6
2017-May-11 13:00N 54°34' E 011°17'4 8.6
2017-May-11 12:30N 54°33' E 011°23'4 9.0
2017-May-11 12:00N 54°31' E 011°30'4 8.8
2017-May-11 11:31N 54°29' E 011°37'4 8.1
2017-May-11 11:00N 54°28' E 011°44'15 8.4
2017-May-11 09:16N 54°28' E 012°09'2 8.7
2017-May-11 09:00N 54°30' E 012°11'4 8.9
2017-May-11 08:30N 54°34' E 012°13'6 8.0
2017-May-11 07:46N 54°39' E 012°19'2 8.6
2017-May-11 07:30N 54°40' E 012°22'4 8.7
2017-May-11 07:00N 54°42' E 012°29'36 8.5
2017-May-11 02:49N 54°56' E 013°26'4 7.7
2017-May-11 02:17N 54°57' E 013°32'2 7.8
2017-May-11 01:59N 54°58' E 013°36'4 8.2
2017-May-11 01:30N 54°59' E 013°43'4 8.0
2017-May-11 01:00N 55°01' E 013°49'4 8.1
2017-May-11 00:30N 55°02' E 013°56'4 8.4
2017-May-11 00:00N 55°04' E 014°03'4 8.1
2017-May-10 23:30N 55°07' E 014°08'4 8.4
2017-May-10 23:00N 55°10' E 014°12'4 7.1
2017-May-10 22:28N 55°13' E 014°16'4 8.8
2017-May-10 22:00N 55°16' E 014°21'4 8.6
2017-May-10 21:30N 55°20' E 014°25'4 8.7
2017-May-10 21:00N 55°23' E 014°30'4 9.0
2017-May-10 20:30N 55°27' E 014°35'5 8.8
2017-May-10 19:59N 55°29' E 014°42'4 8.6
2017-May-10 19:30N 55°31' E 014°48'4 8.5
2017-May-10 19:01N 55°33' E 014°55'4 8.5
2017-May-10 18:30N 55°35' E 015°01'4 8.5
2017-May-10 18:00N 55°37' E 015°08'4 8.4
2017-May-10 17:30N 55°39' E 015°14'4 8.6
2017-May-10 17:00N 55°41' E 015°21'4 8.6
2017-May-10 16:30N 55°44' E 015°27'4 8.7
2017-May-10 16:00N 55°46' E 015°34'4 8.7
2017-May-10 15:30N 55°48' E 015°41'4 8.7
2017-May-10 15:00N 55°50' E 015°47'9 8.6
2017-May-10 14:00N 55°55' E 016°00'4 8.4
2017-May-10 13:30N 55°57' E 016°07'4 8.3
2017-May-10 13:00N 55°59' E 016°13'4 8.5
2017-May-10 12:30N 56°01' E 016°20'4 8.6
2017-May-10 12:00N 56°03' E 016°27'4 8.5
2017-May-10 11:30N 56°05' E 016°33'4 8.7
2017-May-10 11:00N 56°07' E 016°40'4 8.7
2017-May-10 10:30N 56°10' E 016°46'4 8.6
2017-May-10 10:00N 56°12' E 016°53'  

Dump ship's entire track history